Time;durP1;ratioP1;P1;durP2;ratioP2;P2;SDS_P1;SDS_P2;PMS_P1;PMS_P2;Temp;Humidity;BMP_temperature;BMP_pressure;BME280_temperature;BME280_humidity;BME280_pressure;Samples;Min_cycle;Max_cycle;Signal;HPM_P1;HPM_P2
2021/11/12 00:14:49;;;;;;;;;;;2.20;99.90;;;0.89;100.00;96133.34;10439941;28;1974;-76
2021/11/12 00:19:52;;;;;;;;;;;2.10;99.90;;;1.01;100.00;96122.91;10446509;28;1973;-75
2021/11/12 00:24:55;;;;;;;;;;;2.10;99.90;;;0.97;100.00;96127.81;10445788;28;1937;-75
2021/11/12 00:30:05;;;;;;;;;;;2.10;99.90;;;1.08;100.00;96116.63;10463632;28;1900;-76
2021/11/12 00:35:18;;;;;;;;;;;2.10;99.90;;;1.44;100.00;96123.25;10458728;28;2065;-75
2021/11/12 00:40:24;;;;;;;;;;;2.40;99.90;;;1.60;100.00;96117.53;10462807;28;1890;-74
2021/11/12 00:45:27;;;;;;;;;;;2.60;99.90;;;1.69;100.00;96115.44;10459129;28;1929;-74
2021/11/12 00:50:54;;;;;;;;;;;2.80;99.90;;;1.70;100.00;96110.94;10456622;28;2099;-74
2021/11/12 00:55:56;;;;;;;;;;;2.80;99.90;;;1.56;100.00;96108.34;10449160;28;2329;-76
2021/11/12 01:01:02;;;;;;;;;;;2.80;99.90;;;1.66;100.00;96107.13;10445199;28;1887;-75
2021/11/12 01:06:05;;;;;;;;;;;2.80;99.90;;;1.93;100.00;96100.66;10433846;28;2000;-74
2021/11/12 01:11:08;;;;;;;;;;;2.90;99.90;;;2.09;100.00;96105.47;10440913;28;1892;-77
2021/11/12 01:16:10;;;;;;;;;;;3.10;99.90;;;1.94;100.00;96104.94;10438795;28;1916;-74
2021/11/12 01:21:13;;;;;;;;;;;3.10;99.90;;;1.88;100.00;96103.94;10441531;28;1902;-74
2021/11/12 01:26:16;;;;;;;;;;;3.10;99.90;;;1.79;100.00;96104.41;10435180;28;1826;-74
2021/11/12 01:31:22;;;;;;;;;;;3.00;99.90;;;1.84;100.00;96099.28;10439225;28;2142;-74
2021/11/12 01:36:30;;;;;;;;;;;3.00;99.90;;;1.88;100.00;96097.84;10428400;28;1955;-74
2021/11/12 01:41:33;;;;;;;;;;;3.00;99.90;;;1.88;100.00;96093.34;10439887;28;1971;-74
2021/11/12 01:46:48;;;;;;;;;;;3.10;99.90;;;1.77;100.00;96095.84;10432266;28;1894;-74
2021/11/12 01:51:54;;;;;;;;;;;3.00;99.90;;;1.86;100.00;96091.94;10436417;28;1896;-74
2021/11/12 01:57:21;;;;;;;;;;;3.00;99.90;;;1.80;100.00;96084.81;10435865;28;1890;-75
2021/11/12 02:02:25;;;;;;;;;;;3.00;99.90;;;1.29;100.00;96082.97;10435702;28;1881;-74
2021/11/12 02:07:29;;;;;;;;;;;2.70;99.90;;;1.17;100.00;96069.53;10431333;28;1896;-74
2021/11/12 02:12:57;;;;;;;;;;;2.50;99.90;;;1.23;100.00;96073.19;10439239;28;1892;-74
2021/11/12 02:18:00;;;;;;;;;;;2.40;99.90;;;1.10;100.00;96065.28;10431864;28;1981;-75
2021/11/12 02:23:04;;;;;;;;;;;2.40;99.90;;;1.11;100.00;96065.06;10433890;28;1949;-75
2021/11/12 02:28:27;;;;;;;;;;;2.30;99.90;;;0.96;100.00;96067.97;10429007;28;1943;-74
2021/11/12 02:33:50;;;;;;;;;;;2.30;99.90;;;1.07;100.00;96059.38;10430813;28;2174;-75
2021/11/12 02:38:53;;;;;;;;;;;2.20;99.90;;;0.84;100.00;96043.13;10435706;28;1958;-76
2021/11/12 02:43:56;;;;;;;;;;;2.20;99.90;;;0.84;100.00;96032.56;10431532;28;2043;-73
2021/11/12 02:48:59;;;;;;;;;;;2.10;99.90;;;0.76;100.00;96027.47;10434567;28;1920;-75
2021/11/12 02:54:02;;;;;;;;;;;2.00;99.90;;;0.71;100.00;96030.75;10434519;28;1890;-75
2021/11/12 02:59:05;;;;;;;;;;;2.00;99.90;;;0.71;100.00;96027.28;10432037;28;1935;-76
2021/11/12 03:04:08;;;;;;;;;;;2.00;99.90;;;0.80;100.00;96026.03;10438436;28;1934;-75
2021/11/12 03:09:11;;;;;;;;;;;1.90;99.90;;;0.73;100.00;96019.94;10429342;28;1940;-75
2021/11/12 03:14:15;;;;;;;;;;;2.00;99.90;;;0.49;100.00;96013.44;10433823;28;1912;-75
2021/11/12 03:19:18;;;;;;;;;;;1.80;99.90;;;0.41;100.00;96022.41;10433594;28;1952;-75
2021/11/12 03:24:24;;;;;;;;;;;1.60;99.90;;;0.41;100.00;96022.41;10438376;28;1943;-74
2021/11/12 04:06:58;;;;;;;;;;;2.00;99.90;;;0.60;100.00;96017.31;10431880;28;1826;-75
2021/11/12 04:18:03;;;;;;;;;;;1.80;99.90;;;0.43;100.00;96006.31;10441121;28;1906;-74
2021/11/12 05:34:11;;;;;;;;;;;1.20;99.90;;;0.05;100.00;96006.13;10553383;28;1961;-73
2021/11/12 05:44:30;;;;;;;;;;;1.10;99.90;;;0.08;100.00;96008.38;10554965;28;1921;-75
2021/11/12 05:49:45;;;;;;;;;;;1.10;99.90;;;0.18;100.00;96006.13;10557590;28;1897;-73
2021/11/12 05:55:08;;;;;;;;;;;1.20;99.90;;;0.11;100.00;96015.88;10552828;28;1987;-73
2021/11/12 06:00:11;;;;;;;;;;;1.20;99.90;;;0.12;100.00;96006.94;10546416;28;1920;-73
2021/11/12 06:05:16;;;;;;;;;;;1.30;99.90;;;-0.07;100.00;96014.63;10559957;27;1936;-74
2021/11/12 06:10:19;;;;;;;;;;;1.20;99.90;;;0.02;100.00;96009.19;10560037;28;2184;-74
2021/11/12 06:15:22;;;;;;;;;;;1.20;99.90;;;0.11;100.00;96010.59;10556483;28;1910;-74
2021/11/12 06:20:25;;;;;;;;;;;1.20;99.90;;;0.10;100.00;96008.97;10557785;28;1853;-74
2021/11/12 06:25:28;;;;;;;;;;;1.20;99.90;;;0.18;100.00;96000.84;10540636;28;1914;-75
2021/11/12 06:30:31;;;;;;;;;;;1.30;99.90;;;0.01;100.00;95995.16;10527326;28;1869;-75
2021/11/12 06:35:34;;;;;;;;;;;1.20;99.90;;;0.09;100.00;95991.50;10523807;28;2006;-74
2021/11/12 06:40:36;;;;;;;;;;;1.20;99.90;;;0.07;100.00;95997.00;10546293;27;1924;-74
2021/11/12 06:51:00;;;;;;;;;;;1.30;99.90;;;-0.02;100.00;96008.75;10521272;28;1942;-75
2021/11/12 06:56:02;;;;;;;;;;;1.30;99.90;;;0.13;100.00;95998.00;10526064;28;1925;-75
2021/11/12 07:01:05;;;;;;;;;;;1.10;99.90;;;0.21;100.00;95998.63;10530015;28;1937;-74
2021/11/12 07:06:08;;;;;;;;;;;1.40;99.90;;;0.40;100.00;95996.97;10523925;28;1901;-74
2021/11/12 07:11:15;;;;;;;;;;;1.50;99.90;;;0.49;100.00;95998.38;10531567;28;1907;-75
2021/11/12 07:16:18;;;;;;;;;;;1.70;99.90;;;0.35;100.00;95991.50;10530256;28;2020;-74
2021/11/12 07:21:22;;;;;;;;;;;1.60;99.90;;;0.34;100.00;95989.06;10540547;28;1948;-75
2021/11/12 07:26:35;;;;;;;;;;;1.50;99.90;;;0.56;100.00;96008.16;10544051;28;1940;-75
2021/11/12 07:31:40;;;;;;;;;;;1.60;99.90;;;0.54;100.00;96011.00;10534467;28;2036;-75
2021/11/12 07:36:46;;;;;;;;;;;1.70;99.90;;;0.58;100.00;96014.88;10533158;28;2158;-73
2021/11/12 07:42:09;;;;;;;;;;;1.70;99.90;;;0.49;100.00;96006.31;10526478;28;2004;-74
2021/11/12 07:47:13;;;;;;;;;;;1.70;99.90;;;0.42;100.00;96002.06;10506609;28;1895;-77
2021/11/12 07:52:16;;;;;;;;;;;1.70;99.90;;;0.38;100.00;96001.69;10537366;28;1862;-77
2021/11/12 07:57:19;;;;;;;;;;;1.70;99.90;;;0.51;100.00;95993.72;10533786;28;1953;-77
2021/11/12 08:02:22;;;;;;;;;;;1.60;99.90;;;0.55;100.00;95991.47;10529362;28;1981;-78
2021/11/12 08:07:27;;;;;;;;;;;1.80;99.90;;;0.63;100.00;95987.78;10520920;28;2047;-79
2021/11/12 08:12:33;;;;;;;;;;;1.80;99.90;;;0.93;100.00;95994.25;10532280;28;1936;-77
2021/11/12 08:17:41;;;;;;;;;;;2.10;99.90;;;1.35;100.00;95992.09;10520622;28;1988;-78
2021/11/12 08:22:48;;;;;;;;;;;2.10;99.90;;;1.65;100.00;95987.03;10527455;28;1997;-76
2021/11/12 08:28:11;;;;;;;;;;;2.40;99.90;;;1.55;100.00;95992.78;10530201;28;1916;-76
2021/11/12 08:33:25;;;;;;;;;;;2.40;99.90;;;1.46;100.00;95972.84;10531713;28;2157;-77
2021/11/12 08:38:40;;;;;;;;;;;2.50;99.90;;;1.47;100.00;95969.22;10542208;28;1933;-78
2021/11/12 08:43:46;;;;;;;;;;;2.50;99.90;;;1.52;100.00;95969.38;10542852;28;1401;-78
2021/11/12 08:48:56;;;;;;;;;;;2.50;99.90;;;1.41;100.00;95975.34;10539051;28;2139;-78
2021/11/12 08:54:00;;;;;;;;;;;2.50;99.90;;;1.75;100.00;95962.72;10548147;28;1891;-77
2021/11/12 08:59:03;;;;;;;;;;;2.60;99.90;;;2.15;100.00;95955.28;10534308;28;1867;-78
2021/11/12 09:04:06;;;;;;;;;;;2.90;99.90;;;2.23;100.00;95944.44;10528318;28;2107;-76
2021/11/12 09:09:09;;;;;;;;;;;3.40;99.90;;;1.93;100.00;95952.22;10519715;28;1936;-77
2021/11/12 09:14:16;;;;;;;;;;;3.10;99.90;;;2.13;100.00;95949.41;10514317;28;1933;-76
2021/11/12 09:19:19;;;;;;;;;;;3.10;99.90;;;1.73;100.00;95940.94;10520875;28;1929;-76
2021/11/12 09:24:21;;;;;;;;;;;3.10;99.90;;;1.95;100.00;95933.44;10508429;28;1939;-78
2021/11/12 09:29:25;;;;;;;;;;;3.00;99.90;;;1.88;100.00;95939.59;10518125;28;1975;-75
2021/11/12 09:34:28;;;;;;;;;;;3.00;99.90;;;2.10;100.00;95936.56;10511612;28;2157;-76
2021/11/12 09:39:30;;;;;;;;;;;3.10;99.90;;;2.30;100.00;95926.63;10520518;28;1909;-76
2021/11/12 09:44:33;;;;;;;;;;;3.30;99.90;;;2.32;100.00;95926.41;10515142;28;1912;-75
2021/11/12 09:49:36;;;;;;;;;;;3.40;99.90;;;1.88;100.00;95922.88;10520572;28;1828;-77
2021/11/12 09:54:39;;;;;;;;;;;3.30;99.90;;;2.39;100.00;95924.50;10513185;28;1958;-74
2021/11/12 09:59:43;;;;;;;;;;;3.30;99.90;;;2.51;100.00;95922.75;10519220;28;1865;-75
2021/11/12 10:04:46;;;;;;;;;;;3.40;99.90;;;2.55;100.00;95917.81;10528054;28;1858;-76
2021/11/12 10:09:49;;;;;;;;;;;3.50;99.90;;;2.64;100.00;95906.69;10528819;28;1822;-75
2021/11/12 10:14:52;;;;;;;;;;;3.70;99.90;;;2.97;100.00;95902.84;10525694;28;1910;-75
2021/11/12 10:19:55;;;;;;;;;;;3.90;99.90;;;2.85;100.00;95897.47;10522378;28;1861;-76
2021/11/12 10:24:58;;;;;;;;;;;4.00;99.90;;;3.01;100.00;95879.31;10532492;28;1920;-75
2021/11/12 10:30:00;;;;;;;;;;;3.90;99.90;;;3.08;100.00;95875.53;10527747;28;1897;-74
2021/11/12 10:35:07;;;;;;;;;;;4.20;99.90;;;3.21;100.00;95867.41;10529142;28;1934;-75
2021/11/12 10:40:11;;;;;;;;;;;4.30;99.90;;;3.48;100.00;95870.50;10527108;28;1857;-76
2021/11/12 10:45:14;;;;;;;;;;;4.40;99.90;;;3.52;100.00;95870.88;10517291;28;1936;-75
2021/11/12 10:50:17;;;;;;;;;;;4.50;99.90;;;3.35;100.00;95859.25;10514475;28;1737;-74
2021/11/12 10:55:21;;;;;;;;;;;4.50;99.90;;;3.83;100.00;95847.72;10528924;28;1914;-75
2021/11/12 11:00:24;;;;;;;;;;;4.60;99.90;;;3.76;100.00;95853.94;10516886;28;1941;-75
2021/11/12 11:05:27;;;;;;;;;;;4.70;99.90;;;3.37;100.00;95838.56;10529550;28;1416;-75
2021/11/12 11:10:30;;;;;;;;;;;4.60;99.90;;;3.68;100.00;95832.19;10514201;28;1955;-73
2021/11/12 11:15:33;;;;;;;;;;;4.60;99.90;;;3.82;100.00;95833.59;10514113;28;2024;-74
2021/11/12 11:20:36;;;;;;;;;;;4.80;99.90;;;3.69;100.00;95823.16;10525095;28;1951;-73
2021/11/12 11:25:38;;;;;;;;;;;4.80;99.90;;;3.68;100.00;95832.19;10516634;28;1905;-73
2021/11/12 11:30:41;;;;;;;;;;;4.80;99.90;;;4.14;100.00;95831.44;10516490;28;1869;-74
2021/11/12 11:35:44;;;;;;;;;;;5.00;99.90;;;3.90;100.00;95827.94;10515659;28;1991;-74
2021/11/12 11:40:47;;;;;;;;;;;5.00;99.90;;;4.06;100.00;95815.78;10522659;28;1770;-74
2021/11/12 11:45:50;;;;;;;;;;;5.10;99.90;;;4.03;100.00;95810.94;10521583;28;1874;-74
2021/11/12 11:50:53;;;;;;;;;;;5.10;99.90;;;3.66;100.00;95803.16;10523692;28;1908;-74
2021/11/12 11:55:56;;;;;;;;;;;4.90;99.90;;;3.51;100.00;95794.84;10524959;28;1910;-74
2021/11/12 12:00:59;;;;;;;;;;;4.80;99.90;;;4.02;100.00;95785.41;10523946;28;1764;-72
2021/11/12 12:06:02;;;;;;;;;;;4.80;99.90;;;4.07;100.00;95790.81;10516578;28;1711;-74
2021/11/12 12:11:05;;;;;;;;;;;5.00;99.90;;;4.09;100.00;95796.72;10519422;28;1795;-75
2021/11/12 12:16:09;;;;;;;;;;;5.10;99.90;;;3.62;100.00;95801.19;10516320;28;1985;-77
2021/11/12 12:21:21;;;;;;;;;;;5.00;99.90;;;3.28;100.00;95779.66;10515673;28;1936;-76
2021/11/12 12:37:18;;;;;;;;;;;4.80;99.90;;;3.94;100.00;95770.56;10534994;28;1957;-76
2021/11/12 13:25:42;;;;;;;;;;;5.10;99.90;;;3.97;100.00;95745.38;10522291;28;2088;-76
2021/11/12 13:30:45;;;;;;;;;;;5.20;99.90;;;3.90;100.00;95744.69;10515509;28;2002;-75
2021/11/12 13:35:48;;;;;;;;;;;5.10;99.90;;;3.94;100.00;95740.50;10518093;28;1999;-76
2021/11/12 13:40:51;;;;;;;;;;;5.10;99.90;;;3.88;100.00;95736.97;10526877;28;2022;-76
2021/11/12 13:45:54;;;;;;;;;;;5.10;99.90;;;3.93;100.00;95729.06;10509840;28;2371;-75
2021/11/12 13:50:57;;;;;;;;;;;5.00;99.90;;;4.15;100.00;95721.31;10526415;28;1939;-76
2021/11/12 13:55:59;;;;;;;;;;;5.20;99.90;;;4.29;100.00;95722.66;10529875;28;1952;-76
2021/11/12 14:01:02;;;;;;;;;;;5.40;99.90;;;4.17;100.00;95719.22;10527472;27;1814;-75
2021/11/12 14:06:09;;;;;;;;;;;5.40;99.90;;;4.01;100.00;95735.91;10524900;28;1869;-76
2021/11/12 14:11:12;;;;;;;;;;;5.30;99.90;;;4.19;100.00;95727.75;10521574;28;1912;-77
2021/11/12 14:16:16;;;;;;;;;;;5.20;99.90;;;4.30;100.00;95718.16;10514387;28;1918;-76
2021/11/12 14:21:26;;;;;;;;;;;5.40;99.90;;;3.89;100.00;95722.63;10529074;28;1874;-77
2021/11/12 14:26:31;;;;;;;;;;;5.20;99.90;;;3.76;100.00;95710.38;10526834;28;1907;-76
2021/11/12 14:36:58;;;;;;;;;;;5.00;99.90;;;3.81;100.00;95704.34;10523316;28;1918;-76
2021/11/12 14:42:27;;;;;;;;;;;5.10;99.90;;;3.89;100.00;95705.84;10530277;28;1949;-75
2021/11/12 14:47:35;;;;;;;;;;;5.10;99.90;;;3.82;100.00;95705.13;10516779;28;1925;-75
2021/11/12 14:52:39;;;;;;;;;;;5.10;99.90;;;3.74;100.00;95704.47;10527841;28;1939;-75
2021/11/12 14:57:43;;;;;;;;;;;5.10;99.90;;;3.55;100.00;95700.31;10524845;28;1902;-75
2021/11/12 15:02:46;;;;;;;;;;;4.90;99.90;;;3.43;100.00;95696.81;10525769;28;1989;-75
2021/11/12 15:08:11;;;;;;;;;;;4.80;99.90;;;3.29;100.00;95690.94;10508695;28;1985;-76
2021/11/12 15:13:15;;;;;;;;;;;4.70;99.90;;;3.36;100.00;95686.31;10522069;28;2193;-75
2021/11/12 15:18:18;;;;;;;;;;;4.70;99.90;;;3.35;100.00;95689.19;10524999;28;2035;-75
2021/11/12 15:28:53;;;;;;;;;;;4.60;99.90;;;3.49;100.00;95679.97;10474202;28;2231;-74
2021/11/12 15:34:02;;;;;;;;;;;4.60;99.90;;;3.74;100.00;95691.16;10514991;28;2107;-74
2021/11/12 15:39:10;;;;;;;;;;;4.80;99.90;;;3.93;100.00;95688.38;10513060;28;1972;-74
2021/11/12 15:44:15;;;;;;;;;;;5.00;99.90;;;3.84;100.00;95671.97;10521716;28;2251;-74
2021/11/12 15:49:30;;;;;;;;;;;5.00;99.90;;;3.91;100.00;95677.97;10520454;28;1811;-74
2021/11/12 15:54:44;;;;;;;;;;;5.00;99.90;;;3.97;100.00;95678.91;10520722;28;1444;-75
2021/11/12 16:16:11;;;;;;;;;;;4.70;99.90;;;3.55;100.00;95683.53;10524939;28;1956;-72
2021/11/12 16:21:35;;;;;;;;;;;4.60;99.90;;;3.58;100.00;95685.75;10517563;28;1919;-73
2021/11/12 16:26:40;;;;;;;;;;;4.90;99.90;;;3.47;100.00;95684.72;10520923;28;1910;-72
2021/11/12 16:31:44;;;;;;;;;;;4.70;99.90;;;3.55;100.00;95687.00;10517867;28;1916;-72
2021/11/12 16:36:51;;;;;;;;;;;4.60;99.90;;;3.73;100.00;95686.88;10519000;28;1979;-72
2021/11/12 16:42:03;;;;;;;;;;;4.70;99.90;;;3.71;100.00;95686.31;10511582;28;1947;-73
2021/11/12 16:47:21;;;;;;;;;;;4.80;99.90;;;3.86;100.00;95690.34;10500147;28;12190;-72
2021/11/12 16:52:36;;;;;;;;;;;4.90;99.90;;;3.95;100.00;95686.31;10449676;28;1854;-73
2021/11/12 16:57:53;;;;;;;;;;;4.90;99.90;;;3.70;100.00;95691.88;10441767;28;1974;-74
2021/11/12 17:02:58;;;;;;;;;;;4.90;99.90;;;3.53;100.00;95684.59;10406263;28;2215;-73
2021/11/12 17:08:10;;;;;;;;;;;4.70;99.90;;;3.55;100.00;95681.69;10423656;28;1961;-74
2021/11/12 17:13:20;;;;;;;;;;;4.60;99.90;;;3.83;100.00;95691.63;10426874;28;1965;-74
2021/11/12 17:18:38;;;;;;;;;;;4.70;99.90;;;3.99;100.00;95700.72;10419091;28;1910;-73
2021/11/12 17:50:29;;;;;;;;;;;4.80;99.90;;;3.93;100.00;95696.34;10446762;28;1916;-72
2021/11/12 18:06:15;;;;;;;;;;;4.80;99.90;;;3.85;100.00;95710.00;10442615;28;1700;-73
2021/11/12 21:51:28;;;;;;;;;;;4.90;99.90;;;3.76;100.00;95675.81;10453983;28;2027;-73
2021/11/12 21:56:31;;;;;;;;;;;4.70;99.90;;;3.77;100.00;95680.06;10457046;28;1906;-72
2021/11/12 22:01:34;;;;;;;;;;;4.80;99.90;;;3.91;100.00;95670.00;10455070;28;1982;-71
2021/11/12 22:06:37;;;;;;;;;;;4.80;99.90;;;4.02;100.00;95657.72;10458721;28;1982;-72
2021/11/12 22:11:40;;;;;;;;;;;4.90;99.90;;;3.98;100.00;95657.38;10457878;28;1809;-73
2021/11/12 22:16:43;;;;;;;;;;;4.90;99.90;;;4.03;100.00;95654.81;10452358;28;1985;-73
2021/11/12 22:21:46;;;;;;;;;;;4.90;99.90;;;3.99;100.00;95644.88;10455297;28;1884;-73
2021/11/12 22:26:50;;;;;;;;;;;4.90;99.90;;;4.05;100.00;95643.94;10460655;28;1352;-71
2021/11/12 22:31:52;;;;;;;;;;;4.90;99.90;;;4.02;100.00;95657.72;10453931;28;1920;-72
2021/11/12 22:37:15;;;;;;;;;;;4.90;99.90;;;3.99;100.00;95664.31;10452798;28;1956;-72
2021/11/12 22:42:18;;;;;;;;;;;4.90;99.90;;;4.08;100.00;95667.44;10452887;28;1933;-71
2021/11/12 22:47:21;;;;;;;;;;;5.00;99.90;;;3.94;100.00;95656.22;10465070;28;1435;-73
2021/11/12 22:52:24;;;;;;;;;;;5.00;99.90;;;3.98;100.00;95661.88;10466363;28;1534;-72
2021/11/12 22:57:27;;;;;;;;;;;4.80;99.90;;;3.90;100.00;95655.09;10463699;28;1891;-72
2021/11/12 23:02:30;;;;;;;;;;;4.80;99.90;;;3.81;100.00;95656.47;10459564;28;1735;-72
2021/11/12 23:07:32;;;;;;;;;;;4.80;99.90;;;3.75;100.00;95646.78;10462277;28;1455;-73
2021/11/12 23:12:35;;;;;;;;;;;4.70;99.90;;;3.73;100.00;95648.88;10459339;28;1537;-72
2021/11/12 23:17:38;;;;;;;;;;;4.80;99.90;;;3.88;100.00;95651.03;10459820;28;1909;-72
2021/11/12 23:22:41;;;;;;;;;;;4.80;99.90;;;3.84;100.00;95655.22;10457522;28;1493;-72
2021/11/12 23:27:44;;;;;;;;;;;4.80;99.90;;;3.69;100.00;95642.38;10465034;28;1298;-74
2021/11/12 23:32:47;;;;;;;;;;;4.70;99.90;;;3.78;100.00;95639.16;10461391;28;1392;-72
2021/11/12 23:37:49;;;;;;;;;;;4.70;99.90;;;3.87;100.00;95638.78;10463783;28;1981;-72
2021/11/12 23:42:52;;;;;;;;;;;4.70;99.90;;;3.86;100.00;95637.16;10459765;28;1713;-72
2021/11/12 23:47:55;;;;;;;;;;;4.80;99.90;;;3.80;100.00;95626.41;10460093;28;1505;-71
2021/11/12 23:52:58;;;;;;;;;;;4.80;99.90;;;3.74;100.00;95622.03;10458576;28;1516;-73
2021/11/12 23:58:03;;;;;;;;;;;4.80;99.90;;;3.78;100.00;95614.41;10435597;28;1933;-73
